Time;durP1;ratioP1;P1;durP2;ratioP2;P2;SDS_P1;SDS_P2;PMS_P1;PMS_P2;Temp;Humidity;BMP_temperature;BMP_pressure;BME280_temperature;BME280_humidity;BME280_pressure;Samples;Min_cycle;Max_cycle;Signal;HPM_P1;HPM_P2
2022/09/16 00:01:18;;;;;;;0.95;0.22;;;12.40;99.90;;;;;;4832348;29;20048;-87
2022/09/16 00:03:45;;;;;;;1.13;0.43;;;11.60;99.90;;;;;;4863550;29;20037;-88
2022/09/16 00:06:20;;;;;;;0.28;0.20;;;11.80;99.90;;;;;;4847944;29;20102;-87
2022/09/16 00:08:47;;;;;;;0.43;0.28;;;11.40;99.90;;;;;;4848209;29;20144;-87
2022/09/16 00:11:13;;;;;;;2.53;0.50;;;10.90;99.90;;;;;;4847904;29;20400;-87
2022/09/16 00:13:40;;;;;;;1.90;0.35;;;11.30;99.90;;;;;;4833246;29;20113;-85
2022/09/16 00:16:11;;;;;;;0.10;0.10;;;11.30;99.90;;;;;;4863407;29;20551;-85
2022/09/16 00:18:37;;;;;;;1.95;0.30;;;11.20;99.90;;;;;;4855682;29;20046;-85
2022/09/16 00:21:08;;;;;;;0.45;0.28;;;11.20;99.90;;;;;;4847713;29;20504;-84
2022/09/16 00:23:34;;;;;;;0.45;0.22;;;11.10;99.90;;;;;;4863435;29;20124;-84
2022/09/16 00:26:00;;;;;;;1.08;0.30;;;11.10;99.90;;;;;;4863050;29;20045;-84
2022/09/16 00:28:25;;;;;;;1.65;0.32;;;11.10;99.90;;;;;;4847492;29;20053;-84
2022/09/16 00:30:51;;;;;;;0.57;0.20;;;11.10;99.90;;;;;;4847372;29;20441;-87
2022/09/16 00:33:18;;;;;;;0.90;0.22;;;11.10;99.90;;;;;;4847744;29;20169;-87
2022/09/16 00:35:45;;;;;;;2.63;0.50;;;11.10;99.90;;;;;;4862899;29;20053;-87
2022/09/16 00:38:12;;;;;;;1.60;0.70;;;11.10;99.90;;;;;;4862613;29;20052;-87
2022/09/16 00:40:45;;;;;;;0.45;0.30;;;11.20;99.90;;;;;;4847153;29;20042;-87
2022/09/16 00:43:13;;;;;;;0.52;0.32;;;11.20;99.90;;;;;;4847131;29;20070;-87
2022/09/16 00:45:41;;;;;;;2.63;0.52;;;11.20;99.90;;;;;;4862755;29;20041;-87
2022/09/16 00:48:12;;;;;;;0.93;0.38;;;11.30;99.90;;;;;;4832018;29;20445;-87
2022/09/16 00:50:47;;;;;;;4.00;0.60;;;11.30;99.90;;;;;;4862661;29;20060;-87
2022/09/16 00:53:21;;;;;;;0.30;0.30;;;11.30;99.90;;;;;;4846974;29;20092;-87
2022/09/16 00:55:50;;;;;;;1.92;0.40;;;11.30;99.90;;;;;;4847192;29;20045;-87
2022/09/16 00:58:43;;;;;;;0.77;0.40;;;11.30;99.90;;;;;;4846510;29;20045;-87
2022/09/16 01:01:09;;;;;;;0.22;0.17;;;11.30;99.90;;;;;;4862338;29;20051;-87
2022/09/16 01:03:42;;;;;;;1.38;0.57;;;11.30;99.90;;;;;;4846751;29;20045;-87
2022/09/16 01:06:09;;;;;;;0.22;0.10;;;11.30;99.90;;;;;;4847176;29;20393;-84
2022/09/16 01:08:36;;;;;;;3.65;0.70;;;11.30;99.90;;;;;;4847067;29;20508;-84
2022/09/16 01:11:01;;;;;;;3.05;0.47;;;11.20;99.90;;;;;;4845940;29;20064;-84
2022/09/16 01:13:27;;;;;;;2.60;0.50;;;11.20;99.90;;;;;;4862086;29;20128;-84
2022/09/16 01:16:12;;;;;;;4.13;0.60;;;11.20;99.90;;;;;;4846705;29;20124;-84
2022/09/16 01:18:46;;;;;;;1.20;0.40;;;11.20;99.90;;;;;;4862093;29;20113;-84
2022/09/16 01:21:48;;;;;;;0.82;0.40;;;11.20;99.90;;;;;;4862364;29;20053;-84
2022/09/16 01:24:43;;;;;;;0.95;0.40;;;11.10;99.90;;;;;;4846404;29;20561;-84
2022/09/16 01:27:28;;;;;;;0.38;0.30;;;11.00;99.90;;;;;;4782586;29;20113;-84
2022/09/16 01:30:12;;;;;;;1.10;0.43;;;11.00;99.90;;;;;;4861983;29;20048;-84
2022/09/16 01:33:16;;;;;;;0.70;0.38;;;11.00;99.90;;;;;;4861582;29;20504;-84
2022/09/16 01:36:05;;;;;;;0.93;0.50;;;10.90;99.90;;;;;;4761194;30;20047;-84
2022/09/16 01:38:49;;;;;;;1.00;0.30;;;10.80;99.90;;;;;;4826061;29;20077;-84
2022/09/16 01:41:30;;;;;;;1.02;0.30;;;10.80;99.90;;;;;;4833722;29;20124;-84
2022/09/16 01:44:06;;;;;;;2.63;0.60;;;10.70;99.90;;;;;;4846364;29;20053;-84
2022/09/16 01:47:00;;;;;;;0.80;0.47;;;10.60;99.90;;;;;;4846158;29;20069;-84
2022/09/16 01:49:26;;;;;;;0.20;0.20;;;10.60;99.90;;;;;;4861702;29;20053;-84
2022/09/16 01:52:00;;;;;;;1.33;0.65;;;11.00;99.90;;;;;;4861712;29;20437;-84
2022/09/16 01:54:39;;;;;;;0.35;0.22;;;10.60;99.90;;;;;;4847368;29;20110;-87
2022/09/16 01:57:16;;;;;;;1.88;0.70;;;10.60;99.90;;;;;;4846341;29;20495;-87
2022/09/16 01:59:52;;;;;;;1.10;0.57;;;10.90;99.90;;;;;;4845946;29;20037;-87
2022/09/16 02:02:30;;;;;;;2.72;0.47;;;10.60;99.90;;;;;;4846203;29;20029;-87
2022/09/16 02:05:00;;;;;;;0.82;0.38;;;10.70;99.90;;;;;;4861404;29;20132;-88
2022/09/16 02:07:34;;;;;;;0.45;0.43;;;11.00;99.90;;;;;;4845576;29;20060;-87
2022/09/16 02:10:38;;;;;;;1.85;0.57;;;10.90;99.90;;;;;;4860539;29;20053;-88
2022/09/16 02:13:23;;;;;;;2.72;0.47;;;10.90;99.90;;;;;;4841522;29;20496;-87
2022/09/16 02:15:51;;;;;;;0.77;0.40;;;11.00;99.90;;;;;;4845897;29;20041;-88
2022/09/16 02:18:25;;;;;;;2.80;0.90;;;11.00;99.90;;;;;;4845619;29;20045;-87
2022/09/16 02:20:54;;;;;;;0.38;0.30;;;11.00;99.90;;;;;;4845541;29;20073;-87
2022/09/16 02:23:25;;;;;;;1.70;0.28;;;11.10;99.90;;;;;;4860698;29;20041;-87
2022/09/16 02:25:53;;;;;;;1.88;0.38;;;11.00;99.90;;;;;;4845681;29;20045;-87
2022/09/16 02:28:25;;;;;;;1.70;0.50;;;11.00;99.90;;;;;;4845636;29;20083;-88
2022/09/16 02:30:54;;;;;;;3.45;0.68;;;11.50;99.90;;;;;;4860761;29;20053;-87
2022/09/16 02:33:23;;;;;;;0.50;0.30;;;11.10;99.90;;;;;;4860540;29;20056;-87
2022/09/16 02:35:52;;;;;;;1.73;0.65;;;11.40;99.90;;;;;;4860683;29;20052;-88
2022/09/16 02:38:35;;;;;;;4.22;0.40;;;11.10;99.90;;;;;;4844821;29;20133;-87
2022/09/16 02:41:02;;;;;;;0.60;0.25;;;11.10;99.90;;;;;;4844990;29;20053;-87
2022/09/16 02:43:28;;;;;;;2.45;0.82;;;11.10;99.90;;;;;;4860472;29;20038;-87
2022/09/16 02:46:19;;;;;;;0.50;0.22;;;11.70;99.90;;;;;;4860386;29;20124;-84
2022/09/16 02:49:02;;;;;;;1.55;0.90;;;10.80;99.90;;;;;;4844952;29;20060;-84
2022/09/16 02:51:59;;;;;;;1.55;0.20;;;10.70;99.90;;;;;;4860510;29;20121;-84
2022/09/16 02:54:53;;;;;;;2.60;0.30;;;10.60;99.90;;;;;;4844265;29;20066;-84
2022/09/16 02:57:19;;;;;;;2.22;0.32;;;10.50;99.90;;;;;;4850514;24;20062;-87
2022/09/16 02:59:45;;;;;;;1.63;0.45;;;10.50;99.90;;;;;;4845003;29;20056;-87
2022/09/16 03:02:11;;;;;;;1.25;0.45;;;10.50;99.90;;;;;;4844803;29;20037;-84
2022/09/16 03:04:37;;;;;;;1.05;0.38;;;10.50;99.90;;;;;;4860398;29;20051;-84
2022/09/16 03:07:11;;;;;;;2.67;0.50;;;10.60;99.90;;;;;;4845017;29;20124;-84
2022/09/16 03:09:41;;;;;;;1.75;0.63;;;11.20;99.90;;;;;;4830867;29;20412;-84
2022/09/16 03:12:22;;;;;;;1.48;0.35;;;10.70;99.90;;;;;;4845023;29;20114;-84
2022/09/16 03:15:11;;;;;;;1.77;0.20;;;10.70;99.90;;;;;;4842061;29;20512;-85
2022/09/16 03:17:55;;;;;;;1.25;0.55;;;10.80;99.90;;;;;;4842730;29;20389;-87
2022/09/16 03:20:58;;;;;;;2.28;0.43;;;10.80;99.90;;;;;;4860297;29;20053;-87
2022/09/16 03:23:33;;;;;;;0.80;0.43;;;10.70;99.90;;;;;;4844516;29;20041;-87
2022/09/16 03:26:26;;;;;;;0.88;0.35;;;10.60;99.90;;;;;;4844683;29;20049;-87
2022/09/16 03:29:01;;;;;;;1.58;0.70;;;10.50;99.90;;;;;;4859124;29;20045;-87
2022/09/16 03:31:44;;;;;;;1.02;0.40;;;10.40;99.90;;;;;;4844904;29;20132;-87
2022/09/16 03:34:30;;;;;;;4.57;0.80;;;10.30;99.90;;;;;;4844938;29;20049;-84
2022/09/16 03:37:06;;;;;;;2.03;0.43;;;10.40;99.90;;;;;;4846508;29;20385;-84
2022/09/16 03:39:32;;;;;;;;;;;10.40;99.90;;;;;;4860230;29;20310;-84
2022/09/16 03:42:04;;;;;;;1.60;0.23;;;10.50;99.90;;;;;;4844681;29;20015;-84
2022/09/16 03:44:32;;;;;;;1.63;0.30;;;10.60;99.90;;;;;;4844404;29;20827;-84
2022/09/16 03:46:57;;;;;;;1.80;0.60;;;10.70;99.90;;;;;;4844142;29;20056;-84
2022/09/16 03:49:23;;;;;;;4.10;0.85;;;10.70;99.90;;;;;;4844142;29;20042;-84
2022/09/16 03:51:49;;;;;;;1.75;0.65;;;10.70;99.90;;;;;;4844486;29;20045;-87
2022/09/16 03:54:14;;;;;;;0.65;0.38;;;11.20;99.90;;;;;;4844533;29;20481;-87
2022/09/16 03:56:40;;;;;;;5.35;0.70;;;10.70;99.90;;;;;;4829436;29;20113;-87
2022/09/16 03:59:06;;;;;;;2.45;0.57;;;10.70;99.90;;;;;;4828628;29;20050;-87
2022/09/16 04:01:32;;;;;;;2.97;0.77;;;11.10;99.90;;;;;;4829173;29;20041;-86
2022/09/16 04:03:57;;;;;;;1.65;0.47;;;10.70;99.90;;;;;;4844505;29;20034;-87
2022/09/16 04:06:23;;;;;;;2.10;0.63;;;10.80;99.90;;;;;;4844320;29;20068;-87
2022/09/16 04:08:50;;;;;;;3.40;0.65;;;10.80;99.90;;;;;;4843758;29;20037;-84
2022/09/16 04:11:16;;;;;;;4.28;0.90;;;10.90;99.90;;;;;;4829547;29;20045;-84
2022/09/16 04:13:42;;;;;;;3.33;0.75;;;10.70;99.90;;;;;;4844473;29;20049;-84
2022/09/16 04:16:07;;;;;;;1.67;0.63;;;10.60;99.90;;;;;;4829168;29;20052;-84
2022/09/16 04:18:33;;;;;;;2.58;0.40;;;10.50;99.90;;;;;;4828781;29;20046;-84
2022/09/16 04:21:01;;;;;;;0.50;0.17;;;10.40;99.90;;;;;;4829314;29;20037;-84
2022/09/16 04:23:28;;;;;;;0.43;0.30;;;10.20;99.90;;;;;;4859641;29;20121;-84
2022/09/16 04:25:58;;;;;;;1.77;0.52;;;10.00;99.90;;;;;;4844453;29;20038;-84
2022/09/16 04:28:24;;;;;;;1.52;0.47;;;10.00;99.90;;;;;;4828921;29;20055;-84
2022/09/16 04:30:50;;;;;;;1.83;0.63;;;9.90;99.90;;;;;;4844119;29;20472;-84
2022/09/16 04:33:16;;;;;;;1.70;0.80;;;9.80;99.90;;;;;;4831639;29;20046;-84
2022/09/16 04:35:42;;;;;;;2.92;0.75;;;10.50;99.90;;;;;;4832214;29;20492;-84
2022/09/16 04:38:08;;;;;;;1.40;0.60;;;;;;;;;;4862737;29;20045;-84
2022/09/16 04:40:34;;;;;;;6.50;0.73;;;9.40;99.90;;;;;;4846707;29;20041;-84
2022/09/16 04:42:59;;;;;;;0.80;0.20;;;9.40;99.90;;;;;;4831714;29;20045;-84
2022/09/16 04:45:25;;;;;;;5.07;0.80;;;9.30;99.90;;;;;;4847644;29;20041;-84
2022/09/16 04:47:57;;;;;;;3.88;0.70;;;9.30;99.90;;;;;;4831905;29;20045;-84
2022/09/16 04:50:24;;;;;;;3.28;0.43;;;9.20;99.90;;;;;;4847177;29;20037;-84
2022/09/16 04:52:50;;;;;;;0.73;0.20;;;9.20;99.90;;;;;;4847329;29;20072;-84
2022/09/16 04:55:17;;;;;;;2.90;0.93;;;9.20;99.90;;;;;;4831789;29;20046;-84
2022/09/16 04:57:43;;;;;;;0.60;0.30;;;10.00;99.90;;;;;;4862610;29;20048;-87
2022/09/16 05:00:09;;;;;;;2.83;0.73;;;9.20;99.90;;;;;;4862267;29;20042;-87
2022/09/16 05:02:38;;;;;;;7.53;0.88;;;9.20;99.90;;;;;;4847100;29;20404;-87
2022/09/16 05:05:16;;;;;;;5.28;1.00;;;9.20;99.90;;;;;;4847055;29;20177;-87
2022/09/16 05:07:41;;;;;;;5.85;1.13;;;9.20;99.90;;;;;;4842373;29;20137;-87
2022/09/16 05:10:07;;;;;;;4.93;0.70;;;9.10;99.90;;;;;;4862231;29;20086;-87
2022/09/16 05:12:33;;;;;;;2.25;0.38;;;9.20;99.90;;;;;;4862050;29;20053;-87
2022/09/16 05:15:05;;;;;;;1.85;0.55;;;9.10;99.90;;;;;;4831755;29;20049;-87
2022/09/16 05:17:31;;;;;;;0.95;0.52;;;9.10;99.90;;;;;;4862238;29;20488;-87
2022/09/16 05:19:57;;;;;;;4.15;0.88;;;9.20;99.90;;;;;;4846871;29;20056;-87
2022/09/16 05:22:23;;;;;;;1.33;0.60;;;9.30;99.90;;;;;;4861723;29;20045;-87
2022/09/16 05:24:51;;;;;;;4.10;0.60;;;9.80;99.90;;;;;;4846401;29;20450;-87
2022/09/16 05:27:17;;;;;;;2.50;0.73;;;9.40;99.90;;;;;;4832651;29;20057;-87
2022/09/16 05:29:43;;;;;;;6.22;0.70;;;9.80;99.90;;;;;;4862104;29;20454;-87
2022/09/16 05:32:17;;;;;;;4.13;1.10;;;10.40;99.90;;;;;;4831770;29;20046;-85
2022/09/16 05:34:49;;;;;;;5.05;0.95;;;9.30;99.90;;;;;;4832215;29;20129;-85
2022/09/16 05:37:16;;;;;;;1.40;0.47;;;10.00;99.90;;;;;;4832010;29;20045;-84
2022/09/16 05:39:42;;;;;;;4.25;0.65;;;10.10;99.90;;;;;;4846209;29;20084;-85
2022/09/16 05:42:08;;;;;;;0.88;0.40;;;10.10;99.90;;;;;;4861693;29;20105;-85
2022/09/16 05:44:34;;;;;;;0.55;0.47;;;10.20;99.90;;;;;;4845656;29;20045;-85
2022/09/16 05:47:01;;;;;;;0.85;0.40;;;10.80;99.90;;;;;;4846586;29;20045;-86
2022/09/16 05:49:27;;;;;;;3.88;0.68;;;10.40;99.90;;;;;;4847130;29;20370;-87
2022/09/16 05:51:56;;;;;;;5.65;0.68;;;10.40;99.90;;;;;;4861870;29;20461;-87
2022/09/16 05:54:23;;;;;;;1.10;0.25;;;10.10;99.90;;;;;;4830600;29;20078;-87
2022/09/16 05:56:50;;;;;;;3.30;0.98;;;10.20;99.90;;;;;;4845519;29;20100;-87
2022/09/16 05:59:16;;;;;;;1.58;0.60;;;11.00;99.90;;;;;;4846176;29;20045;-87
2022/09/16 06:01:43;;;;;;;1.45;0.50;;;10.30;99.90;;;;;;4861438;29;20038;-87
2022/09/16 06:04:11;;;;;;;2.08;0.75;;;10.40;99.90;;;;;;4846264;29;20040;-85
2022/09/16 06:06:42;;;;;;;4.15;0.85;;;10.40;99.90;;;;;;4861257;29;20049;-85
2022/09/16 06:09:17;;;;;;;2.17;0.57;;;10.50;99.90;;;;;;4861350;29;20045;-84
2022/09/16 06:11:45;;;;;;;2.67;0.85;;;10.40;99.90;;;;;;4861284;29;20045;-84
2022/09/16 06:14:12;;;;;;;0.90;0.40;;;10.40;99.90;;;;;;4845495;29;20190;-85
2022/09/16 06:16:45;;;;;;;2.55;0.70;;;10.60;99.90;;;;;;4845891;29;20085;-85
2022/09/16 06:19:16;;;;;;;2.50;1.08;;;11.10;99.90;;;;;;4830969;29;20545;-85
2022/09/16 06:21:42;;;;;;;2.38;1.23;;;11.70;99.90;;;;;;4861107;29;20042;-84
2022/09/16 06:24:09;;;;;;;1.40;0.40;;;12.60;99.90;;;;;;4830118;29;20496;-85
2022/09/16 06:26:40;;;;;;;4.45;0.93;;;13.00;99.90;;;;;;4846080;29;20125;-85
2022/09/16 06:29:06;;;;;;;1.65;0.63;;;12.40;99.90;;;;;;4845612;29;20454;-85
2022/09/16 06:31:32;;;;;;;2.95;0.77;;;12.90;99.90;;;;;;4860835;29;20056;-85
2022/09/16 06:33:58;;;;;;;3.80;0.68;;;12.80;99.90;;;;;;4861157;29;20133;-89
2022/09/16 06:36:28;;;;;;;1.85;0.45;;;13.50;99.90;;;;;;4845435;29;20509;-89
2022/09/16 06:38:57;;;;;;;4.47;1.02;;;13.30;99.90;;;;;;4844100;29;20046;-84
2022/09/16 06:41:24;;;;;;;5.22;0.95;;;13.10;99.90;;;;;;4844822;29;20045;-84
2022/09/16 06:43:50;;;;;;;5.40;1.35;;;13.60;99.90;;;;;;4841198;29;20042;-84
2022/09/16 06:46:30;;;;;;;3.30;0.80;;;14.10;99.90;;;;;;4837527;29;20038;-84
2022/09/16 06:48:59;;;;;;;5.40;0.90;;;14.70;99.90;;;;;;4828310;29;20460;-81
2022/09/16 06:51:30;;;;;;;4.07;0.93;;;16.30;99.90;;;;;;4838888;29;20069;-81
2022/09/16 06:54:03;;;;;;;5.40;0.70;;;17.70;99.90;;;;;;4861179;29;20037;-83
2022/09/16 06:56:29;;;;;;;3.47;0.57;;;19.20;99.90;;;;;;4835714;29;20417;-83
2022/09/16 06:58:56;;;;;;;4.90;0.90;;;20.20;99.90;;;;;;4854318;29;20118;-83
2022/09/16 07:01:27;;;;;;;1.88;0.57;;;21.20;99.90;;;;;;4868581;29;20048;-83
2022/09/16 07:03:54;;;;;;;1.65;0.50;;;21.90;99.90;;;;;;4827044;29;20048;-83
2022/09/16 07:06:21;;;;;;;1.45;0.43;;;22.50;98.90;;;;;;4852350;29;20066;-83
2022/09/16 07:08:48;;;;;;;3.38;0.98;;;23.10;97.20;;;;;;4850597;29;20411;-83
2022/09/16 07:11:19;;;;;;;4.03;1.13;;;23.60;96.50;;;;;;4840763;29;20125;-82
2022/09/16 07:13:46;;;;;;;3.45;1.10;;;24.10;94.30;;;;;;4834205;29;20041;-81
2022/09/16 07:16:24;;;;;;;3.85;1.70;;;24.50;94.20;;;;;;4852061;29;20056;-81
2022/09/16 07:18:54;;;;;;;2.78;0.52;;;23.90;92.90;;;;;;4837856;29;20042;-81
2022/09/16 07:21:23;;;;;;;3.03;0.45;;;23.40;91.40;;;;;;4818862;29;20045;-82
2022/09/16 07:23:49;;;;;;;9.48;0.93;;;22.10;92.30;;;;;;4850191;29;20049;-82
2022/09/16 07:26:21;;;;;;;5.65;0.90;;;21.30;94.30;;;;;;4855520;29;20046;-81
2022/09/16 07:28:48;;;;;;;4.05;0.65;;;20.80;94.10;;;;;;4860211;29;20049;-81
2022/09/16 07:31:35;;;;;;;2.40;0.38;;;19.90;95.40;;;;;;4860537;29;20053;-81
2022/09/16 07:34:02;;;;;;;2.30;0.82;;;19.10;96.90;;;;;;4845189;29;20080;-81
2022/09/16 07:36:34;;;;;;;2.22;0.65;;;19.10;98.00;;;;;;4826907;29;20066;-81
2022/09/16 07:39:02;;;;;;;3.42;1.05;;;19.90;96.90;;;;;;4859085;29;20053;-85
2022/09/16 07:41:31;;;;;;;3.05;0.73;;;20.90;95.40;;;;;;4860027;29;20042;-84
2022/09/16 07:43:59;;;;;;;1.20;1.02;;;22.20;94.00;;;;;;4859920;29;20046;-87
2022/09/16 07:46:29;;;;;;;4.22;0.63;;;22.90;92.90;;;;;;4844492;29;20179;-87
2022/09/16 07:48:57;;;;;;;2.42;0.70;;;22.50;91.10;;;;;;4859979;29;20124;-87
2022/09/16 07:51:26;;;;;;;3.35;0.40;;;22.40;92.70;;;;;;4844453;29;20067;-87
2022/09/16 07:53:54;;;;;;;2.53;0.90;;;21.60;92.00;;;;;;4843500;29;20049;-87
2022/09/16 07:56:25;;;;;;;2.53;0.90;;;20.60;92.90;;;;;;4859403;29;20065;-87
2022/09/16 07:58:55;;;;;;;3.28;1.13;;;19.50;94.60;;;;;;4858295;29;20176;-87
2022/09/16 08:01:21;;;;;;;2.92;0.80;;;18.20;96.40;;;;;;4831615;29;20073;-85
2022/09/16 08:03:47;;;;;;;4.10;1.23;;;17.40;97.50;;;;;;4827151;29;20048;-85
2022/09/16 08:06:16;;;;;;;2.80;0.73;;;16.90;98.80;;;;;;4841383;29;20497;-85
2022/09/16 08:08:43;;;;;;;2.28;0.40;;;16.50;99.90;;;;;;4844838;29;20085;-85
2022/09/16 08:11:11;;;;;;;5.65;0.70;;;16.70;99.90;;;;;;4845053;29;20077;-85
2022/09/16 08:13:37;;;;;;;7.15;1.38;;;17.60;99.90;;;;;;4815019;29;20046;-85
2022/09/16 08:16:13;;;;;;;4.70;1.20;;;19.00;98.90;;;;;;4829836;29;20088;-85
2022/09/16 08:18:39;;;;;;;3.38;0.82;;;20.50;98.20;;;;;;4842492;29;20060;-85
2022/09/16 08:21:19;;;;;;;3.47;1.23;;;22.10;94.80;;;;;;4845316;29;20052;-85
2022/09/16 08:23:45;;;;;;;2.53;0.63;;;23.00;92.80;;;;;;4846834;29;20060;-85
2022/09/16 08:26:12;;;;;;;2.28;0.93;;;23.90;88.10;;;;;;4847662;29;20512;-85
2022/09/16 08:28:40;;;;;;;6.47;1.35;;;24.50;89.30;;;;;;4832851;29;20041;-85
2022/09/16 08:31:07;;;;;;;2.03;0.50;;;25.10;84.50;;;;;;4846233;29;20050;-85
2022/09/16 08:33:33;;;;;;;5.22;0.88;;;25.30;83.40;;;;;;4832652;29;20053;-85
2022/09/16 08:36:19;;;;;;;1.48;0.50;;;25.70;79.60;;;;;;4862960;29;20046;-85
2022/09/16 08:38:46;;;;;;;4.38;0.90;;;25.80;82.40;;;;;;4863140;29;20494;-85
2022/09/16 08:41:43;;;;;;;2.22;0.70;;;25.90;75.40;;;;;;4844082;29;20389;-85
2022/09/16 08:44:11;;;;;;;4.25;0.55;;;26.00;75.00;;;;;;4849331;29;20076;-85
2022/09/16 08:46:53;;;;;;;1.10;0.52;;;26.00;77.80;;;;;;4847850;29;20430;-85
2022/09/16 08:49:39;;;;;;;2.55;0.60;;;26.40;74.60;;;;;;4862868;29;20059;-85
2022/09/16 08:52:32;;;;;;;2.75;0.85;;;26.80;78.30;;;;;;4862748;29;20396;-84
2022/09/16 08:55:04;;;;;;;1.08;0.40;;;27.30;76.60;;;;;;4862131;29;20144;-84
2022/09/16 08:57:37;;;;;;;6.63;0.68;;;27.40;76.00;;;;;;4867206;29;20064;-83
2022/09/16 09:00:15;;;;;;;6.38;1.50;;;27.60;74.60;;;;;;4858694;29;20488;-84
2022/09/16 09:03:11;;;;;;;2.80;0.75;;;27.80;76.40;;;;;;4876202;29;20097;-83
2022/09/16 09:05:43;;;;;;;3.47;0.93;;;27.30;70.80;;;;;;4847623;29;20552;-85
2022/09/16 09:08:22;;;;;;;1.83;0.85;;;27.50;74.90;;;;;;4862136;29;20586;-89
2022/09/16 09:10:56;;;;;;;3.03;0.75;;;28.00;72.40;;;;;;4847007;29;20132;-89
2022/09/16 09:13:27;;;;;;;3.92;0.75;;;28.20;69.10;;;;;;4862644;29;20370;-89
2022/09/16 09:16:16;;;;;;;2.55;0.80;;;28.10;68.00;;;;;;4847115;29;20045;-89
2022/09/16 09:18:57;;;;;;;4.07;0.90;;;27.90;68.20;;;;;;4827803;29;20058;-89
2022/09/16 09:21:27;;;;;;;1.02;0.40;;;27.70;67.10;;;;;;4843384;29;20045;-89
2022/09/16 09:24:29;;;;;;;3.65;0.57;;;27.00;70.40;;;;;;4852940;29;20551;-85
2022/09/16 09:27:07;;;;;;;4.32;1.48;;;26.70;73.40;;;;;;4844441;29;20050;-85
2022/09/16 09:29:55;;;;;;;3.88;1.02;;;25.70;69.60;;;;;;4839507;29;20056;-86
2022/09/16 09:32:29;;;;;;;1.17;0.52;;;24.20;74.30;;;;;;4843801;29;20045;-86
2022/09/16 09:35:38;;;;;;;2.85;0.80;;;23.40;79.30;;;;;;4844954;29;20098;-86
2022/09/16 09:38:22;;;;;;;3.50;1.30;;;24.20;77.80;;;;;;4832865;29;20049;-85
2022/09/16 09:40:56;;;;;;;4.35;1.08;;;25.20;76.00;;;;;;4849539;29;20033;-86
2022/09/16 09:43:28;;;;;;;2.47;0.65;;;25.80;73.60;;;;;;4846188;29;20393;-85
2022/09/16 09:45:59;;;;;;;2.20;1.13;;;24.70;73.10;;;;;;4856197;29;20072;-85
2022/09/16 09:48:40;;;;;;;3.75;1.20;;;24.30;74.10;;;;;;4857668;29;20401;-85
2022/09/16 09:51:26;;;;;;;2.15;0.85;;;24.50;72.80;;;;;;4844593;29;20056;-85
2022/09/16 09:53:58;;;;;;;7.15;1.75;;;24.80;72.70;;;;;;4861668;29;20045;-85
2022/09/16 09:56:32;;;;;;;4.40;1.02;;;25.20;74.10;;;;;;4860649;29;20065;-85
2022/09/16 09:59:29;;;;;;;4.50;0.80;;;25.60;71.90;;;;;;4843311;29;20109;-88
2022/09/16 10:01:57;;;;;;;3.75;0.73;;;26.00;71.70;;;;;;4860003;29;20050;-85
2022/09/16 10:04:23;;;;;;;5.43;0.90;;;26.20;72.70;;;;;;4861636;29;20049;-85
2022/09/16 10:06:53;;;;;;;3.67;0.68;;;26.40;72.40;;;;;;4861378;29;20437;-86
2022/09/16 10:09:20;;;;;;;2.15;0.80;;;26.60;68.40;;;;;;4861297;29;20049;-86
2022/09/16 10:11:53;;;;;;;4.15;1.45;;;26.70;68.80;;;;;;4860978;29;20045;-86
2022/09/16 10:14:29;;;;;;;2.50;0.77;;;26.80;69.10;;;;;;4843977;29;20050;-89
2022/09/16 10:16:56;;;;;;;4.38;0.88;;;26.90;69.70;;;;;;4851079;29;20428;-88
2022/09/16 10:19:25;;;;;;;5.10;1.67;;;26.80;68.20;;;;;;4827560;29;20050;-89
2022/09/16 10:22:18;;;;;;;3.75;1.02;;;26.30;69.20;;;;;;4840996;29;20098;-90
2022/09/16 10:24:53;;;;;;;2.45;0.90;;;25.00;71.10;;;;;;4831318;29;20097;-91
2022/09/16 10:27:34;;;;;;;2.55;0.52;;;24.90;71.30;;;;;;4846008;29;20076;-90
2022/09/16 10:30:18;;;;;;;3.38;1.65;;;25.60;72.60;;;;;;4827910;29;20081;-91
2022/09/16 10:32:51;;;;;;;3.40;0.95;;;26.20;70.40;;;;;;4827205;29;20077;-86
2022/09/16 10:35:23;;;;;;;2.78;0.80;;;26.50;70.70;;;;;;4856014;29;20132;-88
2022/09/16 10:38:03;;;;;;;0.98;0.73;;;27.20;71.90;;;;;;4842460;29;20130;-88
2022/09/16 10:40:29;;;;;;;5.20;1.10;;;27.20;68.90;;;;;;4837053;29;20042;-87
2022/09/16 10:43:02;;;;;;;2.35;0.80;;;26.90;67.40;;;;;;4830205;29;20527;-87
2022/09/16 10:45:45;;;;;;;4.10;0.85;;;26.60;69.00;;;;;;4845639;29;20041;-87
2022/09/16 10:48:15;;;;;;;5.70;1.23;;;26.20;70.60;;;;;;4860806;29;20037;-89
2022/09/16 10:50:52;;;;;;;2.88;0.80;;;25.90;71.40;;;;;;4861017;29;20042;-89
2022/09/16 10:53:39;;;;;;;7.53;1.00;;;25.20;69.80;;;;;;4860916;29;20050;-90
2022/09/16 10:56:15;;;;;;;0.68;0.20;;;24.60;70.50;;;;;;4845462;29;20061;-90
2022/09/16 10:58:41;;;;;;;3.47;0.85;;;24.70;72.50;;;;;;4845006;29;20056;-90
2022/09/16 11:01:25;;;;;;;2.80;0.80;;;24.90;73.40;;;;;;4844980;29;20049;-89
2022/09/16 11:04:01;;;;;;;5.95;1.25;;;24.30;78.60;;;;;;4845135;29;20076;-87
2022/09/16 11:06:53;;;;;;;4.45;1.63;;;23.00;79.10;;;;;;4857747;29;20055;-87
2022/09/16 11:09:19;;;;;;;0.55;0.15;;;21.90;81.40;;;;;;4844638;29;20045;-86
2022/09/16 11:11:53;;;;;;;3.88;0.80;;;21.80;82.00;;;;;;4860289;29;20105;-86
2022/09/16 11:14:46;;;;;;;3.25;0.93;;;22.50;82.30;;;;;;4860427;29;20064;-87
2022/09/16 11:17:39;;;;;;;5.38;0.77;;;23.60;76.70;;;;;;4860868;29;20425;-86
2022/09/16 11:20:36;;;;;;;6.35;1.48;;;24.20;76.60;;;;;;4860331;29;20514;-86
2022/09/16 11:23:15;;;;;;;2.13;0.98;;;24.60;74.30;;;;;;4860261;29;20089;-90
2022/09/16 11:25:59;;;;;;;1.63;0.40;;;25.10;73.50;;;;;;4860022;29;20065;-89
2022/09/16 11:29:08;;;;;;;4.40;1.23;;;24.90;74.00;;;;;;4844833;29;20501;-91
2022/09/16 11:31:54;;;;;;;6.47;0.85;;;23.90;76.20;;;;;;4860309;29;20497;-91
2022/09/16 11:34:56;;;;;;;5.03;0.73;;;22.60;79.80;;;;;;4844828;29;20564;-91
2022/09/16 11:37:35;;;;;;;3.90;0.80;;;22.10;80.00;;;;;;4844156;29;20500;-91
2022/09/16 11:40:43;;;;;;;3.55;0.90;;;21.90;79.00;;;;;;4855767;29;20077;-91
2022/09/16 11:43:14;;;;;;;2.10;0.80;;;21.90;77.20;;;;;;4820792;29;20197;-90
2022/09/16 11:45:55;;;;;;;8.18;1.05;;;22.50;76.40;;;;;;4862713;29;20106;-91
2022/09/16 11:48:34;;;;;;;2.55;0.65;;;22.60;74.90;;;;;;4846156;29;20104;-91
2022/09/16 11:51:15;;;;;;;5.80;0.93;;;22.70;75.60;;;;;;4863664;29;20045;-90
2022/09/16 11:53:55;;;;;;;4.80;0.95;;;23.10;76.00;;;;;;4863825;29;20124;-88
2022/09/16 11:56:34;;;;;;;4.78;0.93;;;23.10;77.50;;;;;;4847825;29;20049;-88
2022/09/16 11:59:27;;;;;;;5.25;1.17;;;23.00;78.50;;;;;;4863588;29;20053;-88
2022/09/16 12:02:13;;;;;;;3.47;1.05;;;22.60;75.90;;;;;;4837481;29;20057;-88
2022/09/16 12:04:50;;;;;;;5.55;1.30;;;22.40;76.00;;;;;;4847973;29;20127;-88
2022/09/16 12:07:30;;;;;;;2.75;1.15;;;22.30;75.80;;;;;;4863170;29;20098;-87
2022/09/16 12:10:11;;;;;;;2.95;1.23;;;21.90;77.00;;;;;;4847401;29;20081;-88
2022/09/16 12:12:43;;;;;;;7.70;1.20;;;21.50;78.40;;;;;;4876410;29;20060;-91
2022/09/16 12:15:30;;;;;;;4.35;1.10;;;21.10;81.30;;;;;;4848115;29;20056;-90
2022/09/16 12:18:08;;;;;;;5.00;1.80;;;21.10;81.70;;;;;;4848199;29;20092;-91
2022/09/16 12:20:40;;;;;;;4.03;1.10;;;21.20;80.90;;;;;;4849763;29;20178;-90
2022/09/16 12:23:06;;;;;;;7.65;1.25;;;20.90;79.80;;;;;;4832372;29;20049;-88
2022/09/16 12:25:40;;;;;;;2.60;0.73;;;20.60;79.90;;;;;;4843548;29;20042;-87
2022/09/16 12:28:19;;;;;;;2.25;0.90;;;20.70;81.10;;;;;;4847804;29;20132;-86
2022/09/16 12:30:52;;;;;;;3.47;0.90;;;20.90;81.00;;;;;;4863090;29;20037;-86
2022/09/16 12:33:31;;;;;;;5.45;1.40;;;21.00;81.40;;;;;;4847711;29;20050;-86
2022/09/16 12:36:30;;;;;;;3.38;1.23;;;20.60;81.20;;;;;;4863219;29;20450;-86
2022/09/16 12:39:00;;;;;;;4.55;1.52;;;20.50;81.90;;;;;;4837787;29;20096;-87
2022/09/16 12:41:48;;;;;;;4.32;1.02;;;20.50;82.10;;;;;;4839572;29;20404;-86
2022/09/16 12:44:14;;;;;;;2.08;0.68;;;20.50;82.60;;;;;;4847174;29;20120;-89
2022/09/16 12:46:43;;;;;;;5.47;0.95;;;20.50;82.90;;;;;;4847765;29;20051;-88
2022/09/16 12:49:26;;;;;;;2.80;0.80;;;20.50;83.50;;;;;;4847415;29;20484;-87
2022/09/16 12:52:30;;;;;;;6.95;1.38;;;20.00;91.70;;;;;;4862782;29;20057;-87
2022/09/16 12:55:22;;;;;;;4.57;1.33;;;19.20;92.20;;;;;;4847418;29;20382;-88
2022/09/16 12:58:33;;;;;;;3.75;0.93;;;18.60;94.70;;;;;;4795566;29;20058;-88
2022/09/16 13:01:08;;;;;;;3.97;1.08;;;18.60;97.20;;;;;;4806801;29;20055;-90
2022/09/16 13:03:40;;;;;;;2.38;0.85;;;18.70;97.80;;;;;;4825359;29;20072;-90
2022/09/16 13:06:35;;;;;;;3.60;1.20;;;18.60;97.20;;;;;;4810230;29;20046;-89
2022/09/16 13:09:23;;;;;;;2.00;0.73;;;18.50;96.60;;;;;;4804042;29;20087;-90
2022/09/16 13:12:28;;;;;;;1.77;0.98;;;18.70;96.80;;;;;;4824364;29;20070;-90
2022/09/16 13:15:03;;;;;;;4.82;1.40;;;18.80;96.90;;;;;;4822651;29;20111;-90
2022/09/16 13:17:35;;;;;;;3.60;0.98;;;18.90;96.50;;;;;;4809541;29;20370;-86
2022/09/16 13:20:21;;;;;;;4.20;1.15;;;18.90;95.40;;;;;;4825131;29;20399;-87
2022/09/16 13:23:05;;;;;;;3.58;1.60;;;18.90;95.00;;;;;;4825425;29;20102;-87
2022/09/16 13:25:46;;;;;;;3.50;1.02;;;18.60;93.80;;;;;;4807313;29;20130;-86